NCAR-RAP Real-Time Weather Data

Output produced by METARs form (08 May 2021  02:21 UTC)
found at http://weather.rap.ucar.edu/surface/
 
KPDK 080153Z 25003KT 10SM CLR 13/03 A3007 RMK AO2 SLP183 T01330033
KPDK 080053Z 31004KT 10SM CLR 16/02 A3006 RMK AO2 SLP179 T01560022
KPDK 072353Z 33008KT 10SM CLR 17/02 A3006 RMK AO2 SLP177 T01720017 10194 20172 55002
KPDK 072253Z 31012G19KT 10SM CLR 18/01 A3005 RMK AO2 SLP174 T01830011
KPDK 072153Z 31010G19KT 10SM CLR 19/01 A3006 RMK AO2 PK WND 33026/2126 SLP175 T01890011
KPDK 072053Z 31015G24KT 10SM CLR 19/02 A3006 RMK AO2 SLP177 T01940022 56012
KPDK 071953Z 32013G23KT 10SM CLR 19/02 A3007 RMK AO2 SLP179 T01890017
KPDK 071853Z 34017G28KT 10SM CLR 18/02 A3008 RMK AO2 PK WND 33028/1845 SLP184 T01830022
KPDK 071753Z 34016G24KT 10SM CLR 18/02 A3010 RMK AO2 PK WND 33030/1738 SLP188 T01830022 10183 20106 50002
KPDK 071653Z 30017G25KT 10SM CLR 17/03 A3010 RMK AO2 PK WND 33026/1636 SLP189 T01720033
KPDK 071553Z 32014G28KT 10SM CLR 17/04 A3010 RMK AO2 PK WND 34028/1544 SLP188 T01670039
KPDK 071453Z 30015G22KT 10SM FEW039 15/05 A3009 RMK AO2 SLP186 T01500050 51014
KPDK 071353Z 30009G21KT 10SM FEW026 SCT034 13/07 A3009 RMK AO2 SLP185 T01330067
KPDK 071335Z 32010G17KT 10SM SCT024 BKN034 13/07 A3008 RMK AO2 T01330072
KPDK 071323Z 29012G19KT 270V340 10SM BKN024 13/07 A3008 RMK AO2 T01280072
KPDK 071253Z 31011G19KT 10SM SCT018 12/07 A3006 RMK AO2 SLP178 T01220072
KPDK 071153Z 31008G18KT 10SM SCT018 11/07 A3005 RMK AO2 SLP173 T01060072 10133 20094 51013
KPDK 071150Z 30010G18KT 10SM BKN018 10/07 A3005 RMK AO2
KPDK 071053Z 28006KT 10SM CLR 10/07 A3002 RMK AO2 SLP163 T01000072